createdAt,value
2019-05-29T00:04:49.149Z,2.12
2019-05-29T00:09:54.738Z,4.97
2019-05-29T00:15:00.327Z,1.77
2019-05-29T00:20:06.434Z,2.47
2019-05-29T00:25:12.493Z,3.12
2019-05-29T00:30:18.198Z,2.35
2019-05-29T00:35:23.792Z,3.95
2019-05-29T00:40:29.349Z,2.60
2019-05-29T00:45:34.942Z,2.40
2019-05-29T00:50:40.521Z,1.40
2019-05-29T00:55:46.191Z,4.97
2019-05-29T01:00:51.777Z,3.05
2019-05-29T01:05:57.328Z,2.85
2019-05-29T01:11:03.008Z,2.15
2019-05-29T01:16:08.608Z,5.35
2019-05-29T01:21:14.352Z,4.55
2019-05-29T01:26:20.894Z,4.35
2019-05-29T01:31:26.486Z,3.15
2019-05-29T01:36:32.057Z,4.20
2019-05-29T01:41:37.735Z,3.70
2019-05-29T01:46:43.386Z,4.08
2019-05-29T01:51:48.966Z,6.20
2019-05-29T01:56:54.631Z,4.78
2019-05-29T02:02:00.250Z,5.87
2019-05-29T02:07:06.083Z,10.82
2019-05-29T02:12:11.639Z,4.90
2019-05-29T02:17:17.801Z,7.83
2019-05-29T02:22:23.510Z,9.73
2019-05-29T02:27:29.098Z,3.27
2019-05-29T02:32:34.604Z,4.55
2019-05-29T02:37:40.131Z,8.20
2019-05-29T02:42:45.830Z,6.20
2019-05-29T02:47:52.641Z,7.47
2019-05-29T02:52:58.236Z,5.53
2019-05-29T02:58:03.863Z,6.90
2019-05-29T03:03:09.530Z,5.97
2019-05-29T03:08:15.066Z,5.58
2019-05-29T03:13:20.823Z,5.87
2019-05-29T03:18:27.926Z,6.65
2019-05-29T03:23:35.955Z,6.28
2019-05-29T03:28:41.115Z,6.50
2019-05-29T03:33:49.807Z,5.97
2019-05-29T03:38:54.191Z,7.17
2019-05-29T03:44:00.361Z,9.53
2019-05-29T03:49:06.174Z,9.83
2019-05-29T03:54:11.752Z,6.50
2019-05-29T03:59:17.604Z,5.62
2019-05-29T04:04:23.379Z,6.53
2019-05-29T04:09:29.169Z,7.12
2019-05-29T04:14:35.696Z,5.67
2019-05-29T04:19:43.104Z,7.62
2019-05-29T04:24:51.055Z,9.73
2019-05-29T04:30:00.335Z,8.05
2019-05-29T04:35:06.259Z,7.58
2019-05-29T04:40:12.390Z,12.13
2019-05-29T04:45:18.033Z,16.80
2019-05-29T04:50:24.983Z,9.05
2019-05-29T04:55:30.767Z,14.53
2019-05-29T05:00:37.297Z,14.93
2019-05-29T05:05:43.014Z,11.53
2019-05-29T05:10:48.574Z,11.48
2019-05-29T05:15:56.179Z,14.53
2019-05-29T05:21:01.834Z,17.87
2019-05-29T05:26:07.382Z,19.20
2019-05-29T05:31:12.947Z,14.10
2019-05-29T05:36:18.646Z,12.28
2019-05-29T05:41:24.175Z,12.17
2019-05-29T05:46:30.934Z,13.43
2019-05-29T05:51:40.433Z,14.15
2019-05-29T05:56:43.872Z,16.37
2019-05-29T06:01:49.564Z,15.07
2019-05-29T06:06:55.048Z,19.98
2019-05-29T06:12:00.578Z,15.83
2019-05-29T06:17:06.233Z,18.73
2019-05-29T06:22:11.933Z,15.03
2019-05-29T06:27:17.675Z,15.87
2019-05-29T06:32:23.294Z,14.87
2019-05-29T06:37:28.854Z,14.50
2019-05-29T06:42:35.654Z,12.45
2019-05-29T06:47:42.777Z,11.43
2019-05-29T06:52:48.403Z,11.80
2019-05-29T06:57:54.168Z,10.60
2019-05-29T07:02:59.716Z,11.43
2019-05-29T07:08:18.509Z,9.50
2019-05-29T07:13:12.866Z,12.25
2019-05-29T07:18:19.575Z,13.55
2019-05-29T07:23:25.288Z,12.10
2019-05-29T07:28:31.062Z,5.03
2019-05-29T07:33:37.035Z,7.72
2019-05-29T07:38:48.841Z,5.55
2019-05-29T07:43:49.898Z,9.63
2019-05-29T07:48:55.536Z,6.97
2019-05-29T07:54:01.248Z,4.90
2019-05-29T07:59:06.921Z,9.28
2019-05-29T08:04:13.094Z,8.25
2019-05-29T08:09:18.775Z,4.10
2019-05-29T08:14:24.539Z,3.37
2019-05-29T08:19:31.588Z,6.25
2019-05-29T08:24:37.303Z,7.62
2019-05-29T08:29:42.904Z,7.67
2019-05-29T08:34:49.091Z,4.87
2019-05-29T08:39:54.835Z,5.03
2019-05-29T08:45:00.610Z,2.77
2019-05-29T08:50:18.175Z,5.55
2019-05-29T08:55:15.601Z,3.52
2019-05-29T09:00:21.486Z,5.05
2019-05-29T09:05:27.234Z,4.60
2019-05-29T09:10:32.850Z,3.52
2019-05-29T09:15:38.532Z,4.53
2019-05-29T09:21:02.037Z,9.40
2019-05-29T09:25:51.576Z,4.97
2019-05-29T09:30:57.357Z,5.70
2019-05-29T09:36:02.929Z,5.08
2019-05-29T09:41:08.623Z,6.92
2019-05-29T09:46:15.200Z,3.62
2019-05-29T09:51:22.045Z,2.08
2019-05-29T09:56:28.154Z,4.25
2019-05-29T10:01:33.743Z,2.70
2019-05-29T10:06:39.425Z,4.62
2019-05-29T10:11:45.101Z,2.37
2019-05-29T10:16:50.734Z,5.97
2019-05-29T10:21:57.866Z,3.45
2019-05-29T10:27:04.961Z,2.15
2019-05-29T10:32:10.942Z,3.42
2019-05-29T10:37:18.286Z,3.10
2019-05-29T10:42:23.765Z,4.65
2019-05-29T10:47:29.459Z,5.45
2019-05-29T10:52:35.139Z,4.00
2019-05-29T10:57:42.056Z,4.83
2019-05-29T11:02:48.131Z,4.33
2019-05-29T11:07:55.984Z,7.25
2019-05-29T11:13:01.786Z,3.55
2019-05-29T11:18:07.485Z,7.50
2019-05-29T11:23:13.061Z,4.10
2019-05-29T11:28:18.674Z,8.55
2019-05-29T11:33:24.435Z,8.65
2019-05-29T11:38:30.090Z,2.42
2019-05-29T11:43:35.724Z,1.10
2019-05-29T11:48:41.390Z,3.70
2019-05-29T11:53:47.017Z,4.17
2019-05-29T11:58:54.793Z,6.70
2019-05-29T12:04:24.276Z,7.47
2019-05-29T12:09:09.647Z,3.60
2019-05-29T12:14:15.358Z,5.20
2019-05-29T12:19:20.927Z,2.95
2019-05-29T12:24:26.604Z,4.58
2019-05-29T12:29:32.208Z,4.42
2019-05-29T12:34:45.143Z,4.72
2019-05-29T12:39:45.240Z,4.30
2019-05-29T12:44:50.837Z,3.95
2019-05-29T12:49:57.540Z,3.55
2019-05-29T12:55:04.250Z,3.52
2019-05-29T13:00:10.864Z,6.95
2019-05-29T13:05:20.560Z,2.45
2019-05-29T13:10:30.778Z,1.60
2019-05-29T13:15:32.504Z,1.62
2019-05-29T13:20:38.328Z,2.62
2019-05-29T13:25:43.942Z,3.25
2019-05-29T13:30:49.564Z,0.90
2019-05-29T13:35:56.282Z,2.52
2019-05-29T13:41:02.556Z,2.35
2019-05-29T13:46:08.382Z,1.50
2019-05-29T13:51:13.998Z,2.37
2019-05-29T13:56:23.882Z,2.05
2019-05-29T14:01:27.029Z,8.73
2019-05-29T14:06:32.741Z,2.25
2019-05-29T14:11:38.515Z,1.45
2019-05-29T14:16:44.335Z,3.22
2019-05-29T14:21:49.854Z,2.08
2019-05-29T14:26:55.596Z,3.67
2019-05-29T14:32:01.139Z,1.25
2019-05-29T14:37:07.962Z,3.50
2019-05-29T14:42:13.802Z,1.67
2019-05-29T14:47:19.503Z,3.77
2019-05-29T14:52:25.182Z,2.20
2019-05-29T14:57:30.768Z,6.12
2019-05-29T15:02:36.429Z,2.77
2019-05-29T15:07:42.117Z,5.60
2019-05-29T15:12:47.746Z,3.83
2019-05-29T15:17:53.325Z,2.27
2019-05-29T15:22:59.199Z,2.47
2019-05-29T15:28:06.039Z,3.92
2019-05-29T15:33:12.686Z,4.45
2019-05-29T15:38:18.349Z,5.00
2019-05-29T15:43:23.927Z,4.05
2019-05-29T15:48:29.612Z,1.52
2019-05-29T15:53:35.371Z,6.08
2019-05-29T15:58:41.066Z,4.12
2019-05-29T16:03:46.734Z,2.33
2019-05-29T16:08:52.293Z,7.33
2019-05-29T16:13:57.805Z,3.33
2019-05-29T16:19:03.370Z,2.20
2019-05-29T16:24:09.054Z,1.75
2019-05-29T16:29:17.351Z,1.10
2019-05-29T16:34:22.992Z,3.80
2019-05-29T16:39:28.708Z,4.05
2019-05-29T16:44:34.354Z,1.40
2019-05-29T16:49:40.041Z,2.57
2019-05-29T16:54:45.718Z,4.83
2019-05-29T16:59:51.332Z,2.20
2019-05-29T17:04:58.366Z,4.10
2019-05-29T17:10:04.614Z,1.67
2019-05-29T17:15:12.222Z,2.50
2019-05-29T17:20:22.835Z,3.55
2019-05-29T17:25:28.564Z,4.92
2019-05-29T17:30:34.455Z,5.80
2019-05-29T17:35:40.100Z,7.10
2019-05-29T17:40:45.870Z,6.40
2019-05-29T17:45:51.523Z,4.92
2019-05-29T17:50:57.116Z,4.12
2019-05-29T17:56:02.780Z,6.10
2019-05-29T18:01:08.531Z,5.40
2019-05-29T18:06:14.147Z,5.72
2019-05-29T18:11:21.043Z,10.35
2019-05-29T18:16:27.744Z,8.60
2019-05-29T18:21:33.531Z,11.63
2019-05-29T18:26:46.762Z,14.05
2019-05-29T18:31:46.506Z,14.03
2019-05-29T18:36:52.209Z,14.30
2019-05-29T18:41:57.823Z,15.32
2019-05-29T18:47:03.486Z,14.38
2019-05-29T18:52:09.149Z,12.28
2019-05-29T18:57:16.113Z,16.17
2019-05-29T19:02:23.330Z,16.35
2019-05-29T19:07:29.755Z,15.13
2019-05-29T19:12:35.467Z,12.53
2019-05-29T19:17:41.327Z,16.52
2019-05-29T19:22:47.112Z,12.85
2019-05-29T19:27:53.107Z,14.83
2019-05-29T19:32:58.842Z,16.55
2019-05-29T19:38:04.630Z,16.93
2019-05-29T19:43:10.276Z,17.45
2019-05-29T19:48:15.931Z,17.45
2019-05-29T19:53:24.354Z,19.07
2019-05-29T19:58:29.794Z,21.48
2019-05-29T20:03:36.687Z,19.05
2019-05-29T20:08:42.607Z,24.18
2019-05-29T20:13:48.199Z,23.55
2019-05-29T20:18:53.809Z,23.15
2019-05-29T20:23:59.528Z,22.80
2019-05-29T20:29:05.535Z,21.50
2019-05-29T20:34:11.099Z,17.90
2019-05-29T20:39:16.907Z,21.05
2019-05-29T20:44:22.604Z,25.02
2019-05-29T20:49:28.375Z,20.88
2019-05-29T20:54:33.995Z,24.30
2019-05-29T20:59:40.575Z,24.67
2019-05-29T21:04:46.354Z,28.15
2019-05-29T21:09:52.289Z,25.35
2019-05-29T21:14:58.040Z,24.85
2019-05-29T21:20:03.883Z,27.10
2019-05-29T21:25:14.913Z,24.35
2019-05-29T21:30:22.449Z,23.75
2019-05-29T21:35:28.335Z,25.50
2019-05-29T21:40:34.059Z,31.35
2019-05-29T21:45:40.956Z,27.70
2019-05-29T21:50:47.429Z,30.40
2019-05-29T21:55:53.320Z,26.85
2019-05-29T22:00:58.965Z,24.20
2019-05-29T22:06:04.719Z,27.58
2019-05-29T22:11:10.410Z,26.60
2019-05-29T22:16:15.980Z,25.70
2019-05-29T22:21:21.687Z,27.07
2019-05-29T22:26:27.456Z,28.17
2019-05-29T22:31:33.225Z,25.08
2019-05-29T22:36:38.923Z,22.35
2019-05-29T22:41:44.538Z,19.12
2019-05-29T22:46:51.555Z,18.20
2019-05-29T22:51:57.809Z,17.85
2019-05-29T22:57:04.051Z,21.17
2019-05-29T23:02:10.164Z,16.17
2019-05-29T23:07:15.821Z,22.35
2019-05-29T23:12:21.424Z,18.00
2019-05-29T23:17:27.225Z,18.02
2019-05-29T23:22:32.831Z,18.45
2019-05-29T23:27:38.426Z,19.75
2019-05-29T23:32:44.032Z,17.98
2019-05-29T23:37:49.625Z,18.70
2019-05-29T23:42:55.428Z,17.42
2019-05-29T23:48:01.827Z,24.65
2019-05-29T23:53:07.482Z,26.15
2019-05-29T23:58:13.073Z,24.20
